Hadley, New York
Current Conditions -  °F | °C
As of 9:53 PM on Tuesday 21 Oct 2014 (Local Time) from KGFL Reporting Station
Overcast Overcast  
Wind Chill: 51°   Ceiling: 1900
Heat Index: 51°   Visibility: 10mi
Dew Point: 45°   Wind: 8mph
Humidity: 80%   Direction: 10°N
Pressure: 30.03"   Gusts: NA
Location:  43.32°N, 73.85°W
Report Text: KGFL 220153Z AUTO 01007KT 10SM OVC019 11/07 A3003 RMK AO2 SLP172 T01060072
Loading
Personal Weather Stations






























Interactive Weather Map
Tropical Storm Tracking
New forecast layout! Learn more

10-Day Weather Forecast

Advertisements
Track Severe Weather on mobile